sensor_id;sensor_type;location;lat;lon;timestamp;P1;durP1;ratioP1;P2;durP2;ratioP2
19758;SDS011;10038;42.662;23.278;2023-03-04T00:01:51;18.10;;;12.53;;
19758;SDS011;10038;42.662;23.278;2023-03-04T00:04:18;25.10;;;13.50;;
19758;SDS011;10038;42.662;23.278;2023-03-04T00:06:44;22.73;;;11.87;;
19758;SDS011;10038;42.662;23.278;2023-03-04T00:09:12;17.20;;;10.57;;
19758;SDS011;10038;42.662;23.278;2023-03-04T00:11:39;19.53;;;12.17;;
19758;SDS011;10038;42.662;23.278;2023-03-04T00:14:08;20.70;;;12.67;;
19758;SDS011;10038;42.662;23.278;2023-03-04T00:16:35;23.27;;;14.03;;
19758;SDS011;10038;42.662;23.278;2023-03-04T00:19:03;22.07;;;12.70;;
19758;SDS011;10038;42.662;23.278;2023-03-04T00:21:30;26.33;;;12.93;;
19758;SDS011;10038;42.662;23.278;2023-03-04T00:23:56;21.03;;;12.27;;
19758;SDS011;10038;42.662;23.278;2023-03-04T00:26:23;20.07;;;12.57;;
19758;SDS011;10038;42.662;23.278;2023-03-04T00:28:49;21.67;;;12.50;;
19758;SDS011;10038;42.662;23.278;2023-03-04T00:31:18;20.83;;;12.53;;
19758;SDS011;10038;42.662;23.278;2023-03-04T00:33:44;21.13;;;11.63;;
19758;SDS011;10038;42.662;23.278;2023-03-04T00:36:14;23.83;;;12.53;;
19758;SDS011;10038;42.662;23.278;2023-03-04T00:38:41;29.37;;;13.30;;
19758;SDS011;10038;42.662;23.278;2023-03-04T00:41:08;20.33;;;12.13;;
19758;SDS011;10038;42.662;23.278;2023-03-04T00:43:43;19.37;;;12.30;;
19758;SDS011;10038;42.662;23.278;2023-03-04T00:46:11;21.70;;;12.20;;
19758;SDS011;10038;42.662;23.278;2023-03-04T00:48:39;19.70;;;11.80;;
19758;SDS011;10038;42.662;23.278;2023-03-04T00:51:05;18.33;;;11.60;;
19758;SDS011;10038;42.662;23.278;2023-03-04T00:53:35;21.63;;;11.80;;
19758;SDS011;10038;42.662;23.278;2023-03-04T00:56:05;17.10;;;10.83;;
19758;SDS011;10038;42.662;23.278;2023-03-04T00:58:32;18.80;;;11.17;;
19758;SDS011;10038;42.662;23.278;2023-03-04T01:00:58;20.57;;;10.97;;
19758;SDS011;10038;42.662;23.278;2023-03-04T01:03:26;17.57;;;11.23;;
19758;SDS011;10038;42.662;23.278;2023-03-04T01:05:55;20.73;;;12.90;;
19758;SDS011;10038;42.662;23.278;2023-03-04T01:08:22;20.77;;;12.27;;
19758;SDS011;10038;42.662;23.278;2023-03-04T01:10:50;17.97;;;12.73;;
19758;SDS011;10038;42.662;23.278;2023-03-04T01:13:19;19.70;;;10.30;;
19758;SDS011;10038;42.662;23.278;2023-03-04T01:15:49;20.37;;;12.20;;
19758;SDS011;10038;42.662;23.278;2023-03-04T01:18:15;18.83;;;11.83;;
19758;SDS011;10038;42.662;23.278;2023-03-04T01:20:42;17.27;;;11.60;;
19758;SDS011;10038;42.662;23.278;2023-03-04T01:23:08;19.90;;;11.07;;
19758;SDS011;10038;42.662;23.278;2023-03-04T01:25:39;21.03;;;11.57;;
19758;SDS011;10038;42.662;23.278;2023-03-04T01:28:07;20.43;;;12.27;;
19758;SDS011;10038;42.662;23.278;2023-03-04T01:30:38;19.50;;;10.80;;
19758;SDS011;10038;42.662;23.278;2023-03-04T01:33:04;20.80;;;12.43;;
19758;SDS011;10038;42.662;23.278;2023-03-04T01:35:31;22.10;;;12.63;;
19758;SDS011;10038;42.662;23.278;2023-03-04T01:37:58;28.47;;;15.90;;
19758;SDS011;10038;42.662;23.278;2023-03-04T01:40:24;43.97;;;21.33;;
19758;SDS011;10038;42.662;23.278;2023-03-04T01:42:51;48.13;;;21.33;;
19758;SDS011;10038;42.662;23.278;2023-03-04T01:45:19;66.70;;;29.60;;
19758;SDS011;10038;42.662;23.278;2023-03-04T01:47:46;97.17;;;38.87;;
19758;SDS011;10038;42.662;23.278;2023-03-04T01:50:18;106.10;;;42.53;;
19758;SDS011;10038;42.662;23.278;2023-03-04T01:52:45;59.23;;;25.60;;
19758;SDS011;10038;42.662;23.278;2023-03-04T01:55:17;52.63;;;24.83;;
19758;SDS011;10038;42.662;23.278;2023-03-04T01:57:45;32.57;;;18.73;;
19758;SDS011;10038;42.662;23.278;2023-03-04T02:00:17;97.50;;;43.80;;
19758;SDS011;10038;42.662;23.278;2023-03-04T02:02:46;37.40;;;20.63;;
19758;SDS011;10038;42.662;23.278;2023-03-04T02:05:13;37.23;;;18.40;;
19758;SDS011;10038;42.662;23.278;2023-03-04T02:07:40;54.80;;;27.87;;
19758;SDS011;10038;42.662;23.278;2023-03-04T02:10:08;36.07;;;17.50;;
19758;SDS011;10038;42.662;23.278;2023-03-04T02:12:39;23.97;;;13.70;;
19758;SDS011;10038;42.662;23.278;2023-03-04T02:15:06;30.50;;;17.90;;
19758;SDS011;10038;42.662;23.278;2023-03-04T02:17:33;29.47;;;16.60;;
19758;SDS011;10038;42.662;23.278;2023-03-04T02:20:02;23.37;;;13.10;;
19758;SDS011;10038;42.662;23.278;2023-03-04T02:22:34;20.10;;;11.40;;
19758;SDS011;10038;42.662;23.278;2023-03-04T02:25:03;53.33;;;27.93;;
19758;SDS011;10038;42.662;23.278;2023-03-04T02:27:33;35.60;;;19.37;;
19758;SDS011;10038;42.662;23.278;2023-03-04T02:29:59;29.47;;;17.10;;
19758;SDS011;10038;42.662;23.278;2023-03-04T02:32:26;33.10;;;17.87;;
19758;SDS011;10038;42.662;23.278;2023-03-04T02:34:52;25.40;;;15.10;;
19758;SDS011;10038;42.662;23.278;2023-03-04T02:37:19;22.77;;;14.30;;
19758;SDS011;10038;42.662;23.278;2023-03-04T02:39:46;25.40;;;14.00;;
19758;SDS011;10038;42.662;23.278;2023-03-04T02:42:13;23.30;;;13.00;;
19758;SDS011;10038;42.662;23.278;2023-03-04T02:44:44;25.60;;;12.43;;
19758;SDS011;10038;42.662;23.278;2023-03-04T02:47:14;23.73;;;13.10;;
19758;SDS011;10038;42.662;23.278;2023-03-04T02:49:41;21.53;;;12.10;;
19758;SDS011;10038;42.662;23.278;2023-03-04T02:52:12;21.33;;;11.40;;
19758;SDS011;10038;42.662;23.278;2023-03-04T02:54:39;23.73;;;13.43;;
19758;SDS011;10038;42.662;23.278;2023-03-04T02:57:07;21.37;;;11.90;;
19758;SDS011;10038;42.662;23.278;2023-03-04T02:59:34;24.77;;;12.73;;
19758;SDS011;10038;42.662;23.278;2023-03-04T03:02:02;20.17;;;11.27;;
19758;SDS011;10038;42.662;23.278;2023-03-04T03:04:30;20.00;;;12.53;;
19758;SDS011;10038;42.662;23.278;2023-03-04T03:06:56;17.80;;;11.60;;
19758;SDS011;10038;42.662;23.278;2023-03-04T03:09:23;19.60;;;12.10;;
19758;SDS011;10038;42.662;23.278;2023-03-04T03:11:50;20.70;;;11.48;;
19758;SDS011;10038;42.662;23.278;2023-03-04T03:14:16;18.17;;;10.60;;
19758;SDS011;10038;42.662;23.278;2023-03-04T03:16:43;27.00;;;13.90;;
19758;SDS011;10038;42.662;23.278;2023-03-04T03:19:11;19.80;;;10.80;;
19758;SDS011;10038;42.662;23.278;2023-03-04T03:21:39;21.00;;;10.73;;
19758;SDS011;10038;42.662;23.278;2023-03-04T03:24:06;24.13;;;11.63;;
19758;SDS011;10038;42.662;23.278;2023-03-04T03:26:34;21.05;;;11.43;;
19758;SDS011;10038;42.662;23.278;2023-03-04T03:29:00;25.80;;;13.27;;
19758;SDS011;10038;42.662;23.278;2023-03-04T03:31:27;21.07;;;11.53;;
19758;SDS011;10038;42.662;23.278;2023-03-04T03:33:54;23.23;;;11.80;;
19758;SDS011;10038;42.662;23.278;2023-03-04T03:36:22;16.75;;;10.50;;
19758;SDS011;10038;42.662;23.278;2023-03-04T03:38:48;24.23;;;13.32;;
19758;SDS011;10038;42.662;23.278;2023-03-04T03:41:15;21.40;;;10.38;;
19758;SDS011;10038;42.662;23.278;2023-03-04T03:43:41;23.60;;;10.98;;
19758;SDS011;10038;42.662;23.278;2023-03-04T03:46:08;23.77;;;12.95;;
19758;SDS011;10038;42.662;23.278;2023-03-04T03:48:35;25.52;;;12.75;;
19758;SDS011;10038;42.662;23.278;2023-03-04T03:51:01;24.77;;;12.90;;
19758;SDS011;10038;42.662;23.278;2023-03-04T03:53:31;23.25;;;11.98;;
19758;SDS011;10038;42.662;23.278;2023-03-04T03:55:57;22.90;;;13.20;;
19758;SDS011;10038;42.662;23.278;2023-03-04T03:58:24;24.45;;;11.73;;
19758;SDS011;10038;42.662;23.278;2023-03-04T04:00:52;21.00;;;11.32;;
19758;SDS011;10038;42.662;23.278;2023-03-04T04:03:19;21.95;;;11.02;;
19758;SDS011;10038;42.662;23.278;2023-03-04T04:05:46;21.42;;;12.15;;
19758;SDS011;10038;42.662;23.278;2023-03-04T04:08:15;19.20;;;11.57;;
19758;SDS011;10038;42.662;23.278;2023-03-04T04:10:45;21.92;;;10.82;;
19758;SDS011;10038;42.662;23.278;2023-03-04T04:13:12;17.10;;;10.30;;
19758;SDS011;10038;42.662;23.278;2023-03-04T04:15:39;19.77;;;10.98;;
19758;SDS011;10038;42.662;23.278;2023-03-04T04:18:05;18.08;;;9.50;;
19758;SDS011;10038;42.662;23.278;2023-03-04T04:20:32;21.33;;;10.60;;
19758;SDS011;10038;42.662;23.278;2023-03-04T04:23:00;17.70;;;9.38;;
19758;SDS011;10038;42.662;23.278;2023-03-04T04:25:27;23.55;;;11.70;;
19758;SDS011;10038;42.662;23.278;2023-03-04T04:27:55;16.63;;;9.00;;
19758;SDS011;10038;42.662;23.278;2023-03-04T04:30:22;18.83;;;10.82;;
19758;SDS011;10038;42.662;23.278;2023-03-04T04:32:48;17.10;;;9.15;;
19758;SDS011;10038;42.662;23.278;2023-03-04T04:35:16;24.20;;;12.48;;
19758;SDS011;10038;42.662;23.278;2023-03-04T04:37:43;23.77;;;13.38;;
19758;SDS011;10038;42.662;23.278;2023-03-04T04:40:10;23.77;;;12.68;;
19758;SDS011;10038;42.662;23.278;2023-03-04T04:42:39;17.88;;;11.02;;
19758;SDS011;10038;42.662;23.278;2023-03-04T04:45:08;14.23;;;8.15;;
19758;SDS011;10038;42.662;23.278;2023-03-04T04:47:37;13.30;;;8.93;;
19758;SDS011;10038;42.662;23.278;2023-03-04T04:50:04;17.15;;;8.57;;
19758;SDS011;10038;42.662;23.278;2023-03-04T04:52:31;15.07;;;8.00;;
19758;SDS011;10038;42.662;23.278;2023-03-04T04:54:57;17.40;;;7.75;;
19758;SDS011;10038;42.662;23.278;2023-03-04T04:57:24;13.68;;;7.05;;
19758;SDS011;10038;42.662;23.278;2023-03-04T04:59:51;14.90;;;7.25;;
19758;SDS011;10038;42.662;23.278;2023-03-04T05:02:19;16.95;;;7.38;;
19758;SDS011;10038;42.662;23.278;2023-03-04T05:04:46;14.23;;;7.93;;
19758;SDS011;10038;42.662;23.278;2023-03-04T05:07:13;15.23;;;9.35;;
19758;SDS011;10038;42.662;23.278;2023-03-04T05:09:39;10.20;;;6.55;;
19758;SDS011;10038;42.662;23.278;2023-03-04T05:12:08;12.20;;;6.43;;
19758;SDS011;10038;42.662;23.278;2023-03-04T05:14:34;13.40;;;7.55;;
19758;SDS011;10038;42.662;23.278;2023-03-04T05:17:01;14.18;;;8.70;;
19758;SDS011;10038;42.662;23.278;2023-03-04T05:19:29;14.13;;;8.02;;
19758;SDS011;10038;42.662;23.278;2023-03-04T05:21:55;16.25;;;7.72;;
19758;SDS011;10038;42.662;23.278;2023-03-04T05:24:22;13.93;;;7.75;;
19758;SDS011;10038;42.662;23.278;2023-03-04T05:26:49;13.90;;;8.70;;
19758;SDS011;10038;42.662;23.278;2023-03-04T05:29:15;11.48;;;5.90;;
19758;SDS011;10038;42.662;23.278;2023-03-04T05:31:42;13.00;;;6.47;;
19758;SDS011;10038;42.662;23.278;2023-03-04T05:34:08;17.38;;;9.43;;
19758;SDS011;10038;42.662;23.278;2023-03-04T05:36:36;12.23;;;9.38;;
19758;SDS011;10038;42.662;23.278;2023-03-04T05:39:03;15.15;;;8.88;;
19758;SDS011;10038;42.662;23.278;2023-03-04T05:41:32;16.02;;;8.60;;
19758;SDS011;10038;42.662;23.278;2023-03-04T05:44:01;11.32;;;7.10;;
19758;SDS011;10038;42.662;23.278;2023-03-04T05:46:27;14.20;;;7.07;;
19758;SDS011;10038;42.662;23.278;2023-03-04T05:48:54;14.10;;;7.15;;
19758;SDS011;10038;42.662;23.278;2023-03-04T05:51:23;10.15;;;6.85;;
19758;SDS011;10038;42.662;23.278;2023-03-04T05:53:51;10.05;;;7.03;;
19758;SDS011;10038;42.662;23.278;2023-03-04T05:56:18;8.30;;;6.37;;
19758;SDS011;10038;42.662;23.278;2023-03-04T05:58:48;13.80;;;7.53;;
19758;SDS011;10038;42.662;23.278;2023-03-04T06:01:15;15.07;;;9.37;;
19758;SDS011;10038;42.662;23.278;2023-03-04T06:03:41;12.90;;;7.20;;
19758;SDS011;10038;42.662;23.278;2023-03-04T06:06:08;15.70;;;6.70;;
19758;SDS011;10038;42.662;23.278;2023-03-04T06:08:38;11.67;;;6.57;;
19758;SDS011;10038;42.662;23.278;2023-03-04T06:11:07;13.17;;;8.40;;
19758;SDS011;10038;42.662;23.278;2023-03-04T06:13:35;16.80;;;10.40;;
19758;SDS011;10038;42.662;23.278;2023-03-04T06:16:03;24.10;;;13.20;;
19758;SDS011;10038;42.662;23.278;2023-03-04T06:18:29;26.17;;;13.57;;
19758;SDS011;10038;42.662;23.278;2023-03-04T06:20:56;23.23;;;13.73;;
19758;SDS011;10038;42.662;23.278;2023-03-04T06:23:26;24.90;;;14.20;;
19758;SDS011;10038;42.662;23.278;2023-03-04T06:25:55;26.40;;;16.03;;
19758;SDS011;10038;42.662;23.278;2023-03-04T06:28:23;24.83;;;15.50;;
19758;SDS011;10038;42.662;23.278;2023-03-04T06:30:50;26.63;;;14.33;;
19758;SDS011;10038;42.662;23.278;2023-03-04T06:33:17;29.80;;;14.60;;
19758;SDS011;10038;42.662;23.278;2023-03-04T06:35:44;24.00;;;14.30;;
19758;SDS011;10038;42.662;23.278;2023-03-04T06:38:10;24.10;;;13.70;;
19758;SDS011;10038;42.662;23.278;2023-03-04T06:40:37;20.20;;;11.50;;
19758;SDS011;10038;42.662;23.278;2023-03-04T06:43:04;20.73;;;11.43;;
19758;SDS011;10038;42.662;23.278;2023-03-04T06:45:32;19.10;;;11.67;;
19758;SDS011;10038;42.662;23.278;2023-03-04T06:47:58;19.33;;;13.77;;
19758;SDS011;10038;42.662;23.278;2023-03-04T06:50:25;23.40;;;13.33;;
19758;SDS011;10038;42.662;23.278;2023-03-04T06:52:51;21.80;;;13.10;;
19758;SDS011;10038;42.662;23.278;2023-03-04T06:55:18;21.00;;;11.70;;
19758;SDS011;10038;42.662;23.278;2023-03-04T06:57:45;20.50;;;12.27;;
19758;SDS011;10038;42.662;23.278;2023-03-04T07:00:12;24.13;;;13.43;;
19758;SDS011;10038;42.662;23.278;2023-03-04T07:02:41;24.07;;;12.33;;
19758;SDS011;10038;42.662;23.278;2023-03-04T07:05:08;21.77;;;12.73;;
19758;SDS011;10038;42.662;23.278;2023-03-04T07:07:34;18.50;;;12.80;;
19758;SDS011;10038;42.662;23.278;2023-03-04T07:10:01;22.07;;;10.77;;
19758;SDS011;10038;42.662;23.278;2023-03-04T07:12:28;21.93;;;12.23;;
19758;SDS011;10038;42.662;23.278;2023-03-04T07:14:54;19.00;;;10.90;;
19758;SDS011;10038;42.662;23.278;2023-03-04T07:17:21;19.63;;;12.40;;
19758;SDS011;10038;42.662;23.278;2023-03-04T07:19:49;23.07;;;12.03;;
19758;SDS011;10038;42.662;23.278;2023-03-04T07:22:15;20.50;;;11.23;;
19758;SDS011;10038;42.662;23.278;2023-03-04T07:24:42;20.57;;;13.40;;
19758;SDS011;10038;42.662;23.278;2023-03-04T07:27:09;19.67;;;11.17;;
19758;SDS011;10038;42.662;23.278;2023-03-04T07:29:38;18.50;;;10.30;;
19758;SDS011;10038;42.662;23.278;2023-03-04T07:32:06;19.33;;;11.47;;
19758;SDS011;10038;42.662;23.278;2023-03-04T07:34:32;17.50;;;10.63;;
19758;SDS011;10038;42.662;23.278;2023-03-04T07:37:00;16.10;;;9.73;;
19758;SDS011;10038;42.662;23.278;2023-03-04T07:39:33;19.77;;;9.80;;
19758;SDS011;10038;42.662;23.278;2023-03-04T07:42:02;15.47;;;8.90;;
19758;SDS011;10038;42.662;23.278;2023-03-04T07:44:29;18.43;;;9.13;;
19758;SDS011;10038;42.662;23.278;2023-03-04T07:46:56;14.67;;;10.03;;
19758;SDS011;10038;42.662;23.278;2023-03-04T07:49:25;18.57;;;10.50;;
19758;SDS011;10038;42.662;23.278;2023-03-04T07:51:51;15.70;;;9.00;;
19758;SDS011;10038;42.662;23.278;2023-03-04T07:54:19;18.50;;;8.60;;
19758;SDS011;10038;42.662;23.278;2023-03-04T07:56:46;14.43;;;8.53;;
19758;SDS011;10038;42.662;23.278;2023-03-04T07:59:12;16.37;;;9.70;;
19758;SDS011;10038;42.662;23.278;2023-03-04T08:01:39;16.70;;;8.90;;
19758;SDS011;10038;42.662;23.278;2023-03-04T08:04:06;15.17;;;9.57;;
19758;SDS011;10038;42.662;23.278;2023-03-04T08:06:34;17.63;;;8.73;;
19758;SDS011;10038;42.662;23.278;2023-03-04T08:09:01;16.50;;;8.10;;
19758;SDS011;10038;42.662;23.278;2023-03-04T08:11:33;11.97;;;7.27;;
19758;SDS011;10038;42.662;23.278;2023-03-04T08:14:00;15.87;;;8.80;;
19758;SDS011;10038;42.662;23.278;2023-03-04T08:16:27;14.40;;;8.07;;
19758;SDS011;10038;42.662;23.278;2023-03-04T08:18:55;15.90;;;9.00;;
19758;SDS011;10038;42.662;23.278;2023-03-04T08:21:22;19.87;;;10.87;;
19758;SDS011;10038;42.662;23.278;2023-03-04T08:23:56;18.47;;;9.50;;
19758;SDS011;10038;42.662;23.278;2023-03-04T08:26:24;18.83;;;8.53;;
19758;SDS011;10038;42.662;23.278;2023-03-04T08:28:53;19.77;;;9.63;;
19758;SDS011;10038;42.662;23.278;2023-03-04T08:31:20;13.57;;;8.50;;
19758;SDS011;10038;42.662;23.278;2023-03-04T08:33:47;19.60;;;9.50;;
19758;SDS011;10038;42.662;23.278;2023-03-04T08:36:15;16.63;;;9.70;;
19758;SDS011;10038;42.662;23.278;2023-03-04T08:38:42;18.63;;;11.67;;
19758;SDS011;10038;42.662;23.278;2023-03-04T08:41:09;16.20;;;9.67;;
19758;SDS011;10038;42.662;23.278;2023-03-04T08:43:35;17.00;;;9.47;;
19758;SDS011;10038;42.662;23.278;2023-03-04T08:46:04;15.30;;;9.10;;
19758;SDS011;10038;42.662;23.278;2023-03-04T08:48:31;17.10;;;9.40;;
19758;SDS011;10038;42.662;23.278;2023-03-04T08:50:57;16.30;;;9.87;;
19758;SDS011;10038;42.662;23.278;2023-03-04T08:53:27;27.33;;;10.57;;
19758;SDS011;10038;42.662;23.278;2023-03-04T08:55:54;22.20;;;10.93;;
19758;SDS011;10038;42.662;23.278;2023-03-04T08:58:22;18.60;;;10.87;;
19758;SDS011;10038;42.662;23.278;2023-03-04T09:00:48;16.40;;;10.57;;
19758;SDS011;10038;42.662;23.278;2023-03-04T09:03:17;16.03;;;9.83;;
19758;SDS011;10038;42.662;23.278;2023-03-04T09:05:45;23.33;;;13.73;;
19758;SDS011;10038;42.662;23.278;2023-03-04T09:08:13;15.70;;;9.90;;
19758;SDS011;10038;42.662;23.278;2023-03-04T09:10:42;20.50;;;9.83;;
19758;SDS011;10038;42.662;23.278;2023-03-04T09:13:10;14.23;;;8.80;;
19758;SDS011;10038;42.662;23.278;2023-03-04T09:15:36;22.97;;;9.90;;
19758;SDS011;10038;42.662;23.278;2023-03-04T09:18:03;18.00;;;11.67;;
19758;SDS011;10038;42.662;23.278;2023-03-04T09:20:31;20.40;;;10.10;;
19758;SDS011;10038;42.662;23.278;2023-03-04T09:22:58;14.43;;;9.53;;
19758;SDS011;10038;42.662;23.278;2023-03-04T09:25:25;15.63;;;9.10;;
19758;SDS011;10038;42.662;23.278;2023-03-04T09:27:51;14.70;;;8.70;;
19758;SDS011;10038;42.662;23.278;2023-03-04T09:30:18;16.17;;;9.60;;
19758;SDS011;10038;42.662;23.278;2023-03-04T09:32:45;17.30;;;9.13;;
19758;SDS011;10038;42.662;23.278;2023-03-04T09:35:12;15.13;;;9.43;;
19758;SDS011;10038;42.662;23.278;2023-03-04T09:37:40;21.20;;;11.37;;
19758;SDS011;10038;42.662;23.278;2023-03-04T09:40:07;14.93;;;9.20;;
19758;SDS011;10038;42.662;23.278;2023-03-04T09:42:41;15.47;;;9.80;;
19758;SDS011;10038;42.662;23.278;2023-03-04T09:45:10;18.40;;;10.43;;
19758;SDS011;10038;42.662;23.278;2023-03-04T09:47:41;16.37;;;9.33;;
19758;SDS011;10038;42.662;23.278;2023-03-04T09:50:09;13.47;;;8.83;;
19758;SDS011;10038;42.662;23.278;2023-03-04T09:52:41;13.90;;;8.07;;
19758;SDS011;10038;42.662;23.278;2023-03-04T09:55:13;14.70;;;9.63;;
19758;SDS011;10038;42.662;23.278;2023-03-04T09:57:45;17.27;;;10.80;;
19758;SDS011;10038;42.662;23.278;2023-03-04T10:00:17;15.17;;;10.13;;
19758;SDS011;10038;42.662;23.278;2023-03-04T10:02:56;13.13;;;9.17;;
19758;SDS011;10038;42.662;23.278;2023-03-04T10:05:29;14.90;;;9.97;;
19758;SDS011;10038;42.662;23.278;2023-03-04T10:07:59;16.17;;;9.20;;
19758;SDS011;10038;42.662;23.278;2023-03-04T10:10:35;10.70;;;7.40;;
19758;SDS011;10038;42.662;23.278;2023-03-04T10:13:10;14.80;;;11.10;;
19758;SDS011;10038;42.662;23.278;2023-03-04T10:15:42;13.97;;;9.00;;
19758;SDS011;10038;42.662;23.278;2023-03-04T10:18:12;14.83;;;9.33;;
19758;SDS011;10038;42.662;23.278;2023-03-04T10:20:46;19.50;;;8.90;;
19758;SDS011;10038;42.662;23.278;2023-03-04T10:23:22;11.03;;;7.60;;
19758;SDS011;10038;42.662;23.278;2023-03-04T10:25:56;13.50;;;8.20;;
19758;SDS011;10038;42.662;23.278;2023-03-04T10:28:27;13.33;;;7.80;;
19758;SDS011;10038;42.662;23.278;2023-03-04T10:30:57;11.50;;;8.73;;
19758;SDS011;10038;42.662;23.278;2023-03-04T10:33:29;17.00;;;8.63;;
19758;SDS011;10038;42.662;23.278;2023-03-04T10:36:04;13.37;;;7.80;;
19758;SDS011;10038;42.662;23.278;2023-03-04T10:38:36;18.90;;;9.63;;
19758;SDS011;10038;42.662;23.278;2023-03-04T10:41:10;17.67;;;11.40;;
19758;SDS011;10038;42.662;23.278;2023-03-04T10:43:43;17.63;;;10.50;;
19758;SDS011;10038;42.662;23.278;2023-03-04T10:46:19;24.10;;;11.17;;
19758;SDS011;10038;42.662;23.278;2023-03-04T10:48:46;17.37;;;10.30;;
19758;SDS011;10038;42.662;23.278;2023-03-04T10:51:17;16.47;;;10.77;;
19758;SDS011;10038;42.662;23.278;2023-03-04T10:53:48;20.53;;;11.17;;
19758;SDS011;10038;42.662;23.278;2023-03-04T10:56:33;17.90;;;11.13;;
19758;SDS011;10038;42.662;23.278;2023-03-04T11:01:51;19.17;;;9.87;;
19758;SDS011;10038;42.662;23.278;2023-03-04T11:04:23;26.93;;;11.97;;
19758;SDS011;10038;42.662;23.278;2023-03-04T11:06:50;17.37;;;11.50;;
19758;SDS011;10038;42.662;23.278;2023-03-04T11:09:22;21.63;;;11.97;;
19758;SDS011;10038;42.662;23.278;2023-03-04T11:11:49;17.90;;;10.53;;
19758;SDS011;10038;42.662;23.278;2023-03-04T11:14:22;16.20;;;10.90;;
19758;SDS011;10038;42.662;23.278;2023-03-04T11:16:53;17.57;;;10.73;;
19758;SDS011;10038;42.662;23.278;2023-03-04T11:19:21;19.80;;;10.97;;
19758;SDS011;10038;42.662;23.278;2023-03-04T11:21:56;33.03;;;12.13;;
19758;SDS011;10038;42.662;23.278;2023-03-04T11:24:27;19.00;;;11.43;;
19758;SDS011;10038;42.662;23.278;2023-03-04T11:26:59;18.47;;;10.83;;
19758;SDS011;10038;42.662;23.278;2023-03-04T11:29:39;22.40;;;12.13;;
19758;SDS011;10038;42.662;23.278;2023-03-04T11:32:12;21.00;;;12.50;;
19758;SDS011;10038;42.662;23.278;2023-03-04T11:34:47;19.53;;;12.13;;
19758;SDS011;10038;42.662;23.278;2023-03-04T11:37:21;19.00;;;12.47;;
19758;SDS011;10038;42.662;23.278;2023-03-04T11:39:53;21.83;;;13.07;;
19758;SDS011;10038;42.662;23.278;2023-03-04T11:42:25;23.30;;;12.20;;
19758;SDS011;10038;42.662;23.278;2023-03-04T11:44:55;26.80;;;14.50;;
19758;SDS011;10038;42.662;23.278;2023-03-04T11:47:29;19.90;;;12.20;;
19758;SDS011;10038;42.662;23.278;2023-03-04T11:50:08;20.70;;;12.47;;
19758;SDS011;10038;42.662;23.278;2023-03-04T11:52:43;22.70;;;12.23;;
19758;SDS011;10038;42.662;23.278;2023-03-04T11:55:26;20.20;;;11.70;;
19758;SDS011;10038;42.662;23.278;2023-03-04T11:57:57;19.33;;;11.83;;
19758;SDS011;10038;42.662;23.278;2023-03-04T12:00:33;20.40;;;11.27;;
19758;SDS011;10038;42.662;23.278;2023-03-04T12:03:14;19.80;;;12.27;;
19758;SDS011;10038;42.662;23.278;2023-03-04T12:05:50;24.00;;;13.07;;
19758;SDS011;10038;42.662;23.278;2023-03-04T12:08:20;19.60;;;12.17;;
19758;SDS011;10038;42.662;23.278;2023-03-04T12:11:03;26.50;;;12.93;;
19758;SDS011;10038;42.662;23.278;2023-03-04T12:16:23;19.57;;;10.83;;
19758;SDS011;10038;42.662;23.278;2023-03-04T12:19:02;24.57;;;14.47;;
19758;SDS011;10038;42.662;23.278;2023-03-04T12:21:38;21.27;;;12.33;;
19758;SDS011;10038;42.662;23.278;2023-03-04T12:24:18;28.80;;;13.37;;
19758;SDS011;10038;42.662;23.278;2023-03-04T12:27:03;19.07;;;12.60;;
19758;SDS011;10038;42.662;23.278;2023-03-04T12:29:38;25.13;;;13.50;;
19758;SDS011;10038;42.662;23.278;2023-03-04T12:32:09;24.53;;;12.83;;
19758;SDS011;10038;42.662;23.278;2023-03-04T12:34:43;22.00;;;13.57;;
19758;SDS011;10038;42.662;23.278;2023-03-04T12:37:23;22.13;;;12.93;;
19758;SDS011;10038;42.662;23.278;2023-03-04T12:40:07;22.43;;;11.70;;
19758;SDS011;10038;42.662;23.278;2023-03-04T12:42:44;20.97;;;13.00;;
19758;SDS011;10038;42.662;23.278;2023-03-04T12:45:16;19.90;;;13.03;;
19758;SDS011;10038;42.662;23.278;2023-03-04T12:47:46;24.80;;;11.97;;
19758;SDS011;10038;42.662;23.278;2023-03-04T12:50:23;19.70;;;12.90;;
19758;SDS011;10038;42.662;23.278;2023-03-04T12:53:00;23.20;;;13.50;;
19758;SDS011;10038;42.662;23.278;2023-03-04T12:55:34;20.07;;;12.70;;
19758;SDS011;10038;42.662;23.278;2023-03-04T12:58:03;19.00;;;12.17;;
19758;SDS011;10038;42.662;23.278;2023-03-04T13:00:32;19.53;;;10.73;;
19758;SDS011;10038;42.662;23.278;2023-03-04T13:03:06;22.03;;;11.73;;
19758;SDS011;10038;42.662;23.278;2023-03-04T13:05:56;24.80;;;13.00;;
19758;SDS011;10038;42.662;23.278;2023-03-04T13:08:29;24.43;;;14.60;;
19758;SDS011;10038;42.662;23.278;2023-03-04T13:11:00;22.03;;;14.10;;
19758;SDS011;10038;42.662;23.278;2023-03-04T13:13:40;23.47;;;11.67;;
19758;SDS011;10038;42.662;23.278;2023-03-04T13:16:27;22.73;;;13.43;;
19758;SDS011;10038;42.662;23.278;2023-03-04T13:18:56;23.57;;;14.10;;
19758;SDS011;10038;42.662;23.278;2023-03-04T13:21:24;27.47;;;13.00;;
19758;SDS011;10038;42.662;23.278;2023-03-04T13:23:51;22.10;;;10.97;;
19758;SDS011;10038;42.662;23.278;2023-03-04T13:26:32;22.97;;;12.07;;
19758;SDS011;10038;42.662;23.278;2023-03-04T13:29:29;20.00;;;13.00;;
19758;SDS011;10038;42.662;23.278;2023-03-04T13:32:01;26.63;;;13.07;;
19758;SDS011;10038;42.662;23.278;2023-03-04T13:34:41;18.53;;;11.80;;
19758;SDS011;10038;42.662;23.278;2023-03-04T13:37:24;24.03;;;12.57;;
19758;SDS011;10038;42.662;23.278;2023-03-04T13:40:22;24.40;;;12.10;;
19758;SDS011;10038;42.662;23.278;2023-03-04T13:42:54;22.83;;;12.47;;
19758;SDS011;10038;42.662;23.278;2023-03-04T13:45:32;25.53;;;11.97;;
19758;SDS011;10038;42.662;23.278;2023-03-04T13:48:03;20.20;;;11.33;;
19758;SDS011;10038;42.662;23.278;2023-03-04T13:50:44;20.70;;;12.10;;
19758;SDS011;10038;42.662;23.278;2023-03-04T13:53:25;23.70;;;12.97;;
19758;SDS011;10038;42.662;23.278;2023-03-04T13:56:01;20.77;;;14.27;;
19758;SDS011;10038;42.662;23.278;2023-03-04T13:58:41;24.47;;;15.07;;
19758;SDS011;10038;42.662;23.278;2023-03-04T14:01:20;27.40;;;15.27;;
19758;SDS011;10038;42.662;23.278;2023-03-04T14:03:49;23.67;;;14.37;;
19758;SDS011;10038;42.662;23.278;2023-03-04T14:06:18;23.30;;;14.50;;
19758;SDS011;10038;42.662;23.278;2023-03-04T14:08:46;26.43;;;15.10;;
19758;SDS011;10038;42.662;23.278;2023-03-04T14:11:24;25.67;;;15.60;;
19758;SDS011;10038;42.662;23.278;2023-03-04T14:14:03;30.10;;;16.30;;
19758;SDS011;10038;42.662;23.278;2023-03-04T14:16:34;25.40;;;15.90;;
19758;SDS011;10038;42.662;23.278;2023-03-04T14:19:03;27.53;;;15.40;;
19758;SDS011;10038;42.662;23.278;2023-03-04T14:21:44;25.00;;;15.67;;
19758;SDS011;10038;42.662;23.278;2023-03-04T14:24:12;25.57;;;14.27;;
19758;SDS011;10038;42.662;23.278;2023-03-04T14:26:39;22.27;;;14.00;;
19758;SDS011;10038;42.662;23.278;2023-03-04T14:29:23;23.87;;;15.90;;
19758;SDS011;10038;42.662;23.278;2023-03-04T14:31:53;24.40;;;13.50;;
19758;SDS011;10038;42.662;23.278;2023-03-04T14:34:22;29.40;;;15.50;;